Time;durP1;ratioP1;P1;durP2;ratioP2;P2;SDS_P1;SDS_P2;PMS_P1;PMS_P2;Temp;Humidity;BMP_temperature;BMP_pressure;BME280_temperature;BME280_humidity;BME280_pressure;Samples;Min_cycle;Max_cycle;Signal;HPM_P1;HPM_P2
2023/07/21 00:01:45;;;;;;;;;;;;;;;;;;4976312;28;19957;-73
2023/07/21 00:04:11;;;;;;;;;;;;;;;;;;4976323;28;19958;-72
2023/07/21 00:06:37;;;;;;;;;;;;;;;;;;4976474;28;19976;-72
2023/07/21 00:09:06;;;;;;;;;;;;;;;;;;4976453;28;20320;-73
2023/07/21 00:11:32;;;;;;;;;;;;;;;;;;4974898;28;20424;-72
2023/07/21 00:13:58;;;;;;;;;;;;;;;;;;4976646;28;19968;-72
2023/07/21 00:16:23;;;;;;;;;;;;;;;;;;4974758;28;20059;-73
2023/07/21 00:18:51;;;;;;;;;;;;;;;;;;4975982;28;19957;-74
2023/07/21 00:21:17;;;;;;;;;;;;;;;;;;4974723;28;20003;-72
2023/07/21 00:23:44;;;;;;;;;;;;;;;;;;4976214;28;20440;-73
2023/07/21 00:26:13;;;;;;;;;;;;;;;;;;4976102;28;20332;-74
2023/07/21 00:28:39;;;;;;;;;;;;;;;;;;4976082;28;20435;-72
2023/07/21 00:31:05;;;;;;;;;;;;;;;;;;4975785;28;19957;-72
2023/07/21 00:33:31;;;;;;;;;;;;;;;;;;4976524;28;19957;-73
2023/07/21 00:35:57;;;;;;;;;;;;;;;;;;4975993;28;19957;-72
2023/07/21 00:38:23;;;;;;;;;;;;;;;;;;4975639;28;20008;-71
2023/07/21 00:40:48;;;;;;;;;;;;;;;;;;4975910;28;20071;-72
2023/07/21 00:43:17;;;;;;;;;;;;;;;;;;4975510;28;20101;-73
2023/07/21 00:45:43;;;;;;;;;;;;;;;;;;4974022;28;20005;-71
2023/07/21 00:48:09;;;;;;;;;;;;;;;;;;4975525;28;19964;-71
2023/07/21 00:50:35;;;;;;;;;;;;;;;;;;4976019;28;19957;-72
2023/07/21 00:53:04;;;;;;;;;;;;;;;;;;4975463;28;19965;-74
2023/07/21 00:55:31;;;;;;;;;;;;;;;;;;4975914;28;20100;-72
2023/07/21 00:57:57;;;;;;;;;;;;;;;;;;4975331;28;20051;-72
2023/07/21 01:00:23;;;;;;;;;;;;;;;;;;4975563;28;19996;-72
2023/07/21 01:02:49;;;;;;;;;;;;;;;;;;4974301;28;20416;-72
2023/07/21 01:05:17;;;;;;;;;;;;;;;;;;4975127;28;19957;-72
2023/07/21 01:07:44;;;;;;;;;;;;;;;;;;4975199;28;19964;-73
2023/07/21 01:10:10;;;;;;;;;;;;;;;;;;4973664;28;19961;-73
2023/07/21 01:12:36;;;;;;;;;;;;;;;;;;4973862;28;19961;-71
2023/07/21 01:15:02;;;;;;;;;;;;;;;;;;4975065;28;19957;-72
2023/07/21 01:17:31;;;;;;;;;;;;;;;;;;4975038;28;20439;-71
2023/07/21 01:19:57;;;;;;;;;;;;;;;;;;4975532;28;20043;-72
2023/07/21 01:22:24;;;;;;;;;;;;;;;;;;4975017;28;20004;-72
2023/07/21 01:24:49;;;;;;;;;;;;;;;;;;4975473;28;20008;-73
2023/07/21 01:27:15;;;;;;;;;;;;;;;;;;4974866;28;19980;-72
2023/07/21 01:29:41;;;;;;;;;;;;;;;;;;4973453;28;19961;-73
2023/07/21 01:32:10;;;;;;;;;;;;;;;;;;4975170;28;19979;-73
2023/07/21 01:34:36;;;;;;;;;;;;;;;;;;4975157;28;20327;-73
2023/07/21 01:37:02;;;;;;;;;;;;;;;;;;4975090;28;20048;-72
2023/07/21 01:39:28;;;;;;;;;;;;;;;;;;4974782;28;19957;-73
2023/07/21 01:41:54;;;;;;;;;;;;;;;;;;4974851;28;19977;-72
2023/07/21 01:44:21;;;;;;;;;;;;;;;;;;4974584;28;19968;-71
2023/07/21 01:46:48;;;;;;;;;;;;;;;;;;4975281;28;19977;-73
2023/07/21 01:49:15;;;;;;;;;;;;;;;;;;4974713;28;20443;-71
2023/07/21 01:51:41;;;;;;;;;;;;;;;;;;4975245;28;19996;-74
2023/07/21 01:54:07;;;;;;;;;;;;;;;;;;4974691;28;20011;-72
2023/07/21 01:56:33;;;;;;;;;;;;;;;;;;4974636;28;20051;-71
2023/07/21 01:58:59;;;;;;;;;;;;;;;;;;4974881;28;19964;-72
2023/07/21 02:01:25;;;;;;;;;;;;;;;;;;4974596;28;20052;-73
2023/07/21 02:03:51;;;;;;;;;;;;;;;;;;4974598;28;20012;-73
2023/07/21 02:06:17;;;;;;;;;;;;;;;;;;4974502;28;19977;-72
2023/07/21 02:08:43;;;;;;;;;;;;;;;;;;4974510;28;19964;-72
2023/07/21 02:11:09;;;;;;;;;;;;;;;;;;4974755;28;20012;-71
2023/07/21 02:13:35;;;;;;;;;;;;;;;;;;4975981;28;19961;-73
2023/07/21 02:16:01;;;;;;;;;;;;;;;;;;4978592;28;19980;-73
2023/07/21 02:18:26;;;;;;;;;;;;;;;;;;4978205;28;19965;-72
2023/07/21 02:20:52;;;;;;;;;;;;;;;;;;4978172;28;20498;-73
2023/07/21 02:23:18;;;;;;;;;;;;;;;;;;4978149;28;19963;-72
2023/07/21 02:25:44;;;;;;;;;;;;;;;;;;4978021;28;20059;-72
2023/07/21 02:28:10;;;;;;;;;;;;;;;;;;4978593;28;20028;-72
2023/07/21 02:30:36;;;;;;;;;;;;;;;;;;4978011;28;19957;-72
2023/07/21 02:33:02;;;;;;;;;;;;;;;;;;4978493;28;19972;-72
2023/07/21 02:35:28;;;;;;;;;;;;;;;;;;4977934;28;19979;-72
2023/07/21 02:37:56;;;;;;;;;;;;;;;;;;4977903;28;20503;-72
2023/07/21 02:40:22;;;;;;;;;;;;;;;;;;4978127;28;19957;-73
2023/07/21 02:42:47;;;;;;;;;;;;;;;;;;4978007;28;19973;-72
2023/07/21 02:45:13;;;;;;;;;;;;;;;;;;4977619;28;20530;-72
2023/07/21 02:47:39;;;;;;;;;;;;;;;;;;4977731;28;20003;-72
2023/07/21 02:50:07;;;;;;;;;;;;;;;;;;4977703;28;19957;-72
2023/07/21 02:52:33;;;;;;;;;;;;;;;;;;4978159;28;20045;-71
2023/07/21 02:54:59;;;;;;;;;;;;;;;;;;4977584;28;20040;-72
2023/07/21 02:57:24;;;;;;;;;;;;;;;;;;4977804;28;20004;-72
2023/07/21 02:59:50;;;;;;;;;;;;;;;;;;4977750;28;19964;-73
2023/07/21 03:02:17;;;;;;;;;;;;;;;;;;4977472;28;19957;-71
2023/07/21 03:04:43;;;;;;;;;;;;;;;;;;4977390;28;19961;-72
2023/07/21 03:07:11;;;;;;;;;;;;;;;;;;4977294;28;19977;-72
2023/07/21 03:09:37;;;;;;;;;;;;;;;;;;4977581;28;20040;-72
2023/07/21 03:12:03;;;;;;;;;;;;;;;;;;4977243;28;19993;-72
2023/07/21 03:14:28;;;;;;;;;;;;;;;;;;4977523;28;19964;-72
2023/07/21 03:16:54;;;;;;;;;;;;;;;;;;4977174;28;19992;-71
2023/07/21 03:19:21;;;;;;;;;;;;;;;;;;4977462;28;19964;-73
2023/07/21 03:21:49;;;;;;;;;;;;;;;;;;4977049;28;19958;-72
2023/07/21 03:24:15;;;;;;;;;;;;;;;;;;4976450;28;19957;-73
2023/07/21 03:26:41;;;;;;;;;;;;;;;;;;4976764;28;19983;-72
2023/07/21 03:29:07;;;;;;;;;;;;;;;;;;4976923;28;19957;-72
2023/07/21 03:31:34;;;;;;;;;;;;;;;;;;4976953;28;19957;-73
2023/07/21 03:34:00;;;;;;;;;;;;;;;;;;4977426;28;19957;-73
2023/07/21 03:36:25;;;;;;;;;;;;;;;;;;4976863;28;19963;-72
2023/07/21 03:38:51;;;;;;;;;;;;;;;;;;4977300;28;19958;-73
2023/07/21 03:41:17;;;;;;;;;;;;;;;;;;4976898;28;19958;-73
2023/07/21 03:43:43;;;;;;;;;;;;;;;;;;4976691;28;19995;-72
2023/07/21 03:46:09;;;;;;;;;;;;;;;;;;4976209;28;20089;-72
2023/07/21 03:48:35;;;;;;;;;;;;;;;;;;4976594;28;20012;-72
2023/07/21 03:51:01;;;;;;;;;;;;;;;;;;4976845;28;20008;-71
2023/07/21 03:53:27;;;;;;;;;;;;;;;;;;4976501;28;20367;-73
2023/07/21 03:55:53;;;;;;;;;;;;;;;;;;4976494;28;19969;-71
2023/07/21 03:58:19;;;;;;;;;;;;;;;;;;4976427;28;20343;-71
2023/07/21 04:00:45;;;;;;;;;;;;;;;;;;4976916;28;19961;-72
2023/07/21 04:03:11;;;;;;;;;;;;;;;;;;4976367;28;19962;-72
2023/07/21 04:05:37;;;;;;;;;;;;;;;;;;4976472;28;19981;-73
2023/07/21 04:08:04;;;;;;;;;;;;;;;;;;4976258;28;19961;-72
2023/07/21 04:10:30;;;;;;;;;;;;;;;;;;4974754;28;20420;-71
2023/07/21 04:12:56;;;;;;;;;;;;;;;;;;4976197;28;19958;-71
2023/07/21 04:15:22;;;;;;;;;;;;;;;;;;4975678;28;19969;-72
2023/07/21 04:17:48;;;;;;;;;;;;;;;;;;4976065;28;19957;-72
2023/07/21 04:20:14;;;;;;;;;;;;;;;;;;4976027;28;19968;-72
2023/07/21 04:22:39;;;;;;;;;;;;;;;;;;4975940;28;20007;-72
2023/07/21 04:25:05;;;;;;;;;;;;;;;;;;4976427;28;19996;-71
2023/07/21 04:27:31;;;;;;;;;;;;;;;;;;4976037;28;20020;-70
2023/07/21 04:29:58;;;;;;;;;;;;;;;;;;4975834;28;19957;-72
2023/07/21 04:32:24;;;;;;;;;;;;;;;;;;4976050;28;20471;-71
2023/07/21 04:34:50;;;;;;;;;;;;;;;;;;4976534;28;19957;-72
2023/07/21 04:37:16;;;;;;;;;;;;;;;;;;4975436;28;20040;-72
2023/07/21 04:39:42;;;;;;;;;;;;;;;;;;4975920;28;19957;-72
2023/07/21 04:42:11;;;;;;;;;;;;;;;;;;4975656;28;20072;-72
2023/07/21 04:44:37;;;;;;;;;;;;;;;;;;4975631;28;19989;-71
2023/07/21 04:47:04;;;;;;;;;;;;;;;;;;4976041;28;20462;-71
2023/07/21 04:49:30;;;;;;;;;;;;;;;;;;4975514;28;20044;-71
2023/07/21 04:51:58;;;;;;;;;;;;;;;;;;4975476;28;19964;-73
2023/07/21 04:54:24;;;;;;;;;;;;;;;;;;4975391;28;19969;-72
2023/07/21 04:56:50;;;;;;;;;;;;;;;;;;4975366;28;20339;-72
2023/07/21 04:59:16;;;;;;;;;;;;;;;;;;4975317;28;19957;-72
2023/07/21 05:01:42;;;;;;;;;;;;;;;;;;4975554;28;19961;-73
2023/07/21 05:04:08;;;;;;;;;;;;;;;;;;4975206;28;19957;-73
2023/07/21 05:06:34;;;;;;;;;;;;;;;;;;4975121;28;19981;-72
2023/07/21 05:09:00;;;;;;;;;;;;;;;;;;4975436;28;19957;-73
2023/07/21 05:11:26;;;;;;;;;;;;;;;;;;4975164;28;19961;-74
2023/07/21 05:13:52;;;;;;;;;;;;;;;;;;4975089;28;19957;-73
2023/07/21 05:16:18;;;;;;;;;;;;;;;;;;4975085;28;19964;-72
2023/07/21 05:18:44;;;;;;;;;;;;;;;;;;4975309;28;19961;-72
2023/07/21 05:21:10;;;;;;;;;;;;;;;;;;4975036;28;19957;-73
2023/07/21 05:23:36;;;;;;;;;;;;;;;;;;4974982;28;19957;-72
2023/07/21 05:26:01;;;;;;;;;;;;;;;;;;4974942;28;19977;-72
2023/07/21 05:28:27;;;;;;;;;;;;;;;;;;4975480;28;20348;-73
2023/07/21 05:30:53;;;;;;;;;;;;;;;;;;4975204;28;20104;-71
2023/07/21 05:33:19;;;;;;;;;;;;;;;;;;4975614;28;20435;-73
2023/07/21 05:35:45;;;;;;;;;;;;;;;;;;4975108;28;20030;-72
2023/07/21 05:38:13;;;;;;;;;;;;;;;;;;4975411;28;19961;-73
2023/07/21 05:40:39;;;;;;;;;;;;;;;;;;4975113;28;20000;-72
2023/07/21 05:43:05;;;;;;;;;;;;;;;;;;4974973;28;20335;-72
2023/07/21 05:45:31;;;;;;;;;;;;;;;;;;4974478;28;19992;-71
2023/07/21 05:47:57;;;;;;;;;;;;;;;;;;4975268;28;20304;-72
2023/07/21 05:50:22;;;;;;;;;;;;;;;;;;4978737;28;20004;-74
2023/07/21 05:52:48;;;;;;;;;;;;;;;;;;4978983;28;19957;-72
2023/07/21 05:55:14;;;;;;;;;;;;;;;;;;4978925;28;20352;-71
2023/07/21 05:57:41;;;;;;;;;;;;;;;;;;4979063;28;19958;-72
2023/07/21 06:00:08;;;;;;;;;;;;;;;;;;4978612;28;19957;-72
2023/07/21 06:02:34;;;;;;;;;;;;;;;;;;4978530;28;19965;-72
2023/07/21 06:05:00;;;;;;;;;;;;;;;;;;4978516;28;20029;-72
2023/07/21 06:07:28;;;;;;;;;;;;;;;;;;4978959;28;19977;-73
2023/07/21 06:09:54;;;;;;;;;;;;;;;;;;4978418;28;19968;-73
2023/07/21 06:12:22;;;;;;;;;;;;;;;;;;4978395;28;19957;-73
2023/07/21 06:14:48;;;;;;;;;;;;;;;;;;4978318;28;19964;-73
2023/07/21 06:17:14;;;;;;;;;;;;;;;;;;4978566;28;19961;-73
2023/07/21 06:19:40;;;;;;;;;;;;;;;;;;4978214;28;20420;-73
2023/07/21 06:22:06;;;;;;;;;;;;;;;;;;4978191;28;20445;-71
2023/07/21 06:24:32;;;;;;;;;;;;;;;;;;4978726;28;20056;-72
2023/07/21 06:26:58;;;;;;;;;;;;;;;;;;4977987;28;19981;-72
2023/07/21 06:29:24;;;;;;;;;;;;;;;;;;4978387;28;19961;-71
2023/07/21 06:31:51;;;;;;;;;;;;;;;;;;4978044;28;19984;-73
2023/07/21 06:34:17;;;;;;;;;;;;;;;;;;4979056;28;19957;-72
2023/07/21 06:36:43;;;;;;;;;;;;;;;;;;4978267;28;19964;-72
2023/07/21 06:39:09;;;;;;;;;;;;;;;;;;4978503;28;19957;-74
2023/07/21 06:41:35;;;;;;;;;;;;;;;;;;4977799;28;20469;-72
2023/07/21 06:44:01;;;;;;;;;;;;;;;;;;4977803;28;20442;-72
2023/07/21 06:46:27;;;;;;;;;;;;;;;;;;4977556;28;19993;-72
2023/07/21 06:48:53;;;;;;;;;;;;;;;;;;4977971;28;19966;-73
2023/07/21 06:51:21;;;;;;;;;;;;;;;;;;4977281;28;20481;-74
2023/07/21 06:53:47;;;;;;;;;;;;;;;;;;4977647;28;19957;-72
2023/07/21 06:56:13;;;;;;;;;;;;;;;;;;4978162;28;20303;-72
2023/07/21 06:58:39;;;;;;;;;;;;;;;;;;4977715;28;20049;-71
2023/07/21 07:01:07;;;;;;;;;;;;;;;;;;4977527;28;19981;-72
2023/07/21 07:03:33;;;;;;;;;;;;;;;;;;4976163;28;20047;-73
2023/07/21 07:05:59;;;;;;;;;;;;;;;;;;4977293;28;20068;-72
2023/07/21 07:08:25;;;;;;;;;;;;;;;;;;4977863;28;20379;-72
2023/07/21 07:10:51;;;;;;;;;;;;;;;;;;4977298;28;20466;-72
2023/07/21 07:13:18;;;;;;;;;;;;;;;;;;4977797;28;19957;-72
2023/07/21 07:15:43;;;;;;;;;;;;;;;;;;4977186;28;19979;-73
2023/07/21 07:18:11;;;;;;;;;;;;;;;;;;4977139;28;19964;-71
2023/07/21 07:20:38;;;;;;;;;;;;;;;;;;4977706;28;20434;-72
2023/07/21 07:23:04;;;;;;;;;;;;;;;;;;4977088;28;20052;-73
2023/07/21 07:25:30;;;;;;;;;;;;;;;;;;4976990;28;19988;-73
2023/07/21 07:27:56;;;;;;;;;;;;;;;;;;4977018;28;19958;-72
2023/07/21 07:30:22;;;;;;;;;;;;;;;;;;4976965;28;19963;-73
2023/07/21 07:32:48;;;;;;;;;;;;;;;;;;4977218;28;19980;-72
2023/07/21 07:35:14;;;;;;;;;;;;;;;;;;4977392;28;20001;-73
2023/07/21 07:37:40;;;;;;;;;;;;;;;;;;4976820;28;20008;-72
2023/07/21 07:40:06;;;;;;;;;;;;;;;;;;4977365;28;19957;-72
2023/07/21 07:42:32;;;;;;;;;;;;;;;;;;4976652;28;20068;-72
2023/07/21 07:45:00;;;;;;;;;;;;;;;;;;4976464;28;20032;-73
2023/07/21 07:47:25;;;;;;;;;;;;;;;;;;4976589;28;19977;-74
2023/07/21 07:49:51;;;;;;;;;;;;;;;;;;4977178;28;20427;-69
2023/07/21 07:52:18;;;;;;;;;;;;;;;;;;4976575;28;20055;-72
2023/07/21 07:54:44;;;;;;;;;;;;;;;;;;4976823;28;20412;-68
2023/07/21 07:57:10;;;;;;;;;;;;;;;;;;4976772;28;19957;-67
2023/07/21 07:59:36;;;;;;;;;;;;;;;;;;4976943;28;19980;-69
2023/07/21 08:02:02;;;;;;;;;;;;;;;;;;4976372;28;19957;-69
2023/07/21 08:04:28;;;;;;;;;;;;;;;;;;4976877;28;19958;-70
2023/07/21 08:06:53;;;;;;;;;;;;;;;;;;4976225;28;19977;-70
2023/07/21 08:09:22;;;;;;;;;;;;;;;;;;4976522;28;19957;-69
2023/07/21 08:11:48;;;;;;;;;;;;;;;;;;4975923;28;19957;-71
2023/07/21 08:14:13;;;;;;;;;;;;;;;;;;4976168;28;20023;-72
2023/07/21 08:16:39;;;;;;;;;;;;;;;;;;4976123;28;19965;-69
2023/07/21 08:19:05;;;;;;;;;;;;;;;;;;4976370;28;19958;-68
2023/07/21 08:21:31;;;;;;;;;;;;;;;;;;4973459;28;19961;-69
2023/07/21 08:23:57;;;;;;;;;;;;;;;;;;4956876;28;19962;-69
2023/07/21 08:26:23;;;;;;;;;;;;;;;;;;4973053;28;19981;-69
2023/07/21 08:28:52;;;;;;;;;;;;;;;;;;4975281;28;19972;-69
2023/07/21 08:31:18;;;;;;;;;;;;;;;;;;4975340;28;20391;-68
2023/07/21 08:33:44;;;;;;;;;;;;;;;;;;4976354;28;20028;-68
2023/07/21 08:36:10;;;;;;;;;;;;;;;;;;4975115;28;19965;-68
2023/07/21 08:38:36;;;;;;;;;;;;;;;;;;4974664;28;20352;-68
2023/07/21 08:41:02;;;;;;;;;;;;;;;;;;4975483;28;19957;-69
2023/07/21 08:43:27;;;;;;;;;;;;;;;;;;4976400;28;20462;-70
2023/07/21 08:45:53;;;;;;;;;;;;;;;;;;4975183;28;20000;-76
2023/07/21 08:48:20;;;;;;;;;;;;;;;;;;4976115;28;20011;-70
2023/07/21 08:50:46;;;;;;;;;;;;;;;;;;4975503;28;19957;-71
2023/07/21 08:53:12;;;;;;;;;;;;;;;;;;4975696;28;19958;-70
2023/07/21 08:55:38;;;;;;;;;;;;;;;;;;4975689;28;19965;-70
2023/07/21 08:58:03;;;;;;;;;;;;;;;;;;4975357;28;20008;-69
2023/07/21 09:00:31;;;;;;;;;;;;;;;;;;4975632;28;19957;-69
2023/07/21 09:02:57;;;;;;;;;;;;;;;;;;4975329;28;19958;-70
2023/07/21 09:05:23;;;;;;;;;;;;;;;;;;4975491;28;19957;-69
2023/07/21 09:07:48;;;;;;;;;;;;;;;;;;4975229;28;20427;-69
2023/07/21 09:10:15;;;;;;;;;;;;;;;;;;4975508;28;19961;-70
2023/07/21 09:12:41;;;;;;;;;;;;;;;;;;4975139;28;20008;-69
2023/07/21 09:15:06;;;;;;;;;;;;;;;;;;4975679;28;20335;-70
2023/07/21 09:17:32;;;;;;;;;;;;;;;;;;4975065;28;19957;-70
2023/07/21 09:19:58;;;;;;;;;;;;;;;;;;4975071;28;19961;-69
2023/07/21 09:22:24;;;;;;;;;;;;;;;;;;4974367;28;19961;-69
2023/07/21 09:24:50;;;;;;;;;;;;;;;;;;4974783;28;19996;-69
2023/07/21 09:27:16;;;;;;;;;;;;;;;;;;4975418;28;19984;-69
2023/07/21 09:29:42;;;;;;;;;;;;;;;;;;4974955;28;19965;-69
2023/07/21 09:32:08;;;;;;;;;;;;;;;;;;4975449;28;20415;-69
2023/07/21 09:34:34;;;;;;;;;;;;;;;;;;4975393;28;19961;-69
2023/07/21 09:37:00;;;;;;;;;;;;;;;;;;4975169;28;20056;-69
2023/07/21 09:39:25;;;;;;;;;;;;;;;;;;4974785;28;20450;-69
2023/07/21 09:41:52;;;;;;;;;;;;;;;;;;4974724;28;20076;-70
2023/07/21 09:44:18;;;;;;;;;;;;;;;;;;4974878;28;19980;-70
2023/07/21 09:46:43;;;;;;;;;;;;;;;;;;4975264;28;20012;-69
2023/07/21 09:49:09;;;;;;;;;;;;;;;;;;4974732;28;20455;-69
2023/07/21 09:51:35;;;;;;;;;;;;;;;;;;4975049;28;20048;-68
2023/07/21 09:54:01;;;;;;;;;;;;;;;;;;4974689;28;19957;-70
2023/07/21 09:56:27;;;;;;;;;;;;;;;;;;4974724;28;19958;-69
2023/07/21 09:58:53;;;;;;;;;;;;;;;;;;4974923;28;19957;-69
2023/07/21 10:01:19;;;;;;;;;;;;;;;;;;4974914;28;19957;-69
2023/07/21 10:03:45;;;;;;;;;;;;;;;;;;4975158;28;19964;-69
2023/07/21 10:06:11;;;;;;;;;;;;;;;;;;4974569;28;19983;-70
2023/07/21 10:08:37;;;;;;;;;;;;;;;;;;4974872;28;19961;-71
2023/07/21 10:11:03;;;;;;;;;;;;;;;;;;4974835;28;19968;-70
2023/07/21 10:13:29;;;;;;;;;;;;;;;;;;4975353;28;19957;-71
2023/07/21 10:15:55;;;;;;;;;;;;;;;;;;4974577;28;19965;-70
2023/07/21 10:18:21;;;;;;;;;;;;;;;;;;4974558;28;20478;-70
2023/07/21 10:20:49;;;;;;;;;;;;;;;;;;4974790;28;20053;-69
2023/07/21 10:23:15;;;;;;;;;;;;;;;;;;4974698;28;19962;-70
2023/07/21 10:25:41;;;;;;;;;;;;;;;;;;4974380;28;20087;-70
2023/07/21 10:28:06;;;;;;;;;;;;;;;;;;4974425;28;20039;-70
2023/07/21 10:30:32;;;;;;;;;;;;;;;;;;4974464;28;19975;-69
2023/07/21 10:32:58;;;;;;;;;;;;;;;;;;4974616;28;20024;-69
2023/07/21 10:35:24;;;;;;;;;;;;;;;;;;4977601;28;20000;-71
2023/07/21 10:37:50;;;;;;;;;;;;;;;;;;4977926;28;19964;-70
2023/07/21 10:40:16;;;;;;;;;;;;;;;;;;4978207;28;19957;-69
2023/07/21 10:42:43;;;;;;;;;;;;;;;;;;4978078;28;19974;-70
2023/07/21 10:45:09;;;;;;;;;;;;;;;;;;4977615;28;20000;-69
2023/07/21 10:47:35;;;;;;;;;;;;;;;;;;4978265;28;20320;-69
2023/07/21 10:50:01;;;;;;;;;;;;;;;;;;4978030;28;19961;-70
2023/07/21 10:52:27;;;;;;;;;;;;;;;;;;4978288;28;19964;-70
2023/07/21 10:54:53;;;;;;;;;;;;;;;;;;4977684;28;20489;-69
2023/07/21 10:57:19;;;;;;;;;;;;;;;;;;4977653;28;19972;-70
2023/07/21 10:59:44;;;;;;;;;;;;;;;;;;4978135;28;20434;-69
2023/07/21 11:02:11;;;;;;;;;;;;;;;;;;4977833;28;19974;-70
2023/07/21 11:04:36;;;;;;;;;;;;;;;;;;4977746;28;19964;-70
2023/07/21 11:07:03;;;;;;;;;;;;;;;;;;4977467;28;19976;-70
2023/07/21 11:09:33;;;;;;;;;;;;;;;;;;4977383;28;19957;-69
2023/07/21 11:11:59;;;;;;;;;;;;;;;;;;4977609;28;19957;-69
2023/07/21 11:14:25;;;;;;;;;;;;;;;;;;4977217;28;20011;-70
2023/07/21 11:16:51;;;;;;;;;;;;;;;;;;4977703;28;19957;-70
2023/07/21 11:19:17;;;;;;;;;;;;;;;;;;4977173;28;19957;-69
2023/07/21 11:21:43;;;;;;;;;;;;;;;;;;4977128;28;20336;-69
2023/07/21 11:24:09;;;;;;;;;;;;;;;;;;4977648;28;20430;-70
2023/07/21 11:26:36;;;;;;;;;;;;;;;;;;4977014;28;20417;-70
2023/07/21 11:29:03;;;;;;;;;;;;;;;;;;4977046;28;19980;-69
2023/07/21 11:31:29;;;;;;;;;;;;;;;;;;4977243;28;19991;-70
2023/07/21 11:33:55;;;;;;;;;;;;;;;;;;4977515;28;19964;-70
2023/07/21 11:36:24;;;;;;;;;;;;;;;;;;4976921;28;19964;-69
2023/07/21 11:38:50;;;;;;;;;;;;;;;;;;4977120;28;19964;-70
2023/07/21 11:41:15;;;;;;;;;;;;;;;;;;4976751;28;19958;-69
2023/07/21 11:43:41;;;;;;;;;;;;;;;;;;4976773;28;20455;-69
2023/07/21 11:46:08;;;;;;;;;;;;;;;;;;4975487;28;19993;-69
2023/07/21 11:48:34;;;;;;;;;;;;;;;;;;4976698;28;20056;-69
2023/07/21 11:51:00;;;;;;;;;;;;;;;;;;4976631;28;20062;-69
2023/07/21 11:53:27;;;;;;;;;;;;;;;;;;4976624;28;19961;-71
2023/07/21 11:55:54;;;;;;;;;;;;;;;;;;4976818;28;19958;-70
2023/07/21 11:58:20;;;;;;;;;;;;;;;;;;4976513;28;20435;-69
2023/07/21 12:00:48;;;;;;;;;;;;;;;;;;4976750;28;20308;-70
2023/07/21 12:03:14;;;;;;;;;;;;;;;;;;4976624;28;19965;-69
2023/07/21 12:05:40;;;;;;;;;;;;;;;;;;4976281;28;19964;-70
2023/07/21 12:08:06;;;;;;;;;;;;;;;;;;4976355;28;19964;-69
2023/07/21 12:10:32;;;;;;;;;;;;;;;;;;4976568;28;19962;-70
2023/07/21 12:12:58;;;;;;;;;;;;;;;;;;4976195;28;19960;-71
2023/07/21 12:15:24;;;;;;;;;;;;;;;;;;4976170;28;20028;-69
2023/07/21 12:17:50;;;;;;;;;;;;;;;;;;4976227;28;19961;-70
2023/07/21 12:20:17;;;;;;;;;;;;;;;;;;4975537;28;19957;-69
2023/07/21 12:22:43;;;;;;;;;;;;;;;;;;4975196;28;19958;-69
2023/07/21 12:25:09;;;;;;;;;;;;;;;;;;4976011;28;20004;-70
2023/07/21 12:27:35;;;;;;;;;;;;;;;;;;4975902;28;19981;-70
2023/07/21 12:30:00;;;;;;;;;;;;;;;;;;4976224;28;20323;-70
2023/07/21 12:32:26;;;;;;;;;;;;;;;;;;4975872;28;19957;-70
2023/07/21 12:34:52;;;;;;;;;;;;;;;;;;4976348;28;19957;-71
2023/07/21 12:37:19;;;;;;;;;;;;;;;;;;4975840;28;19964;-70
2023/07/21 12:39:46;;;;;;;;;;;;;;;;;;4976018;28;19967;-68
2023/07/21 12:42:12;;;;;;;;;;;;;;;;;;4975631;28;19973;-69
2023/07/21 12:44:38;;;;;;;;;;;;;;;;;;4975686;28;20085;-70
2023/07/21 12:47:03;;;;;;;;;;;;;;;;;;4976141;28;19984;-69
2023/07/21 12:49:31;;;;;;;;;;;;;;;;;;4975550;28;19957;-70
2023/07/21 12:51:57;;;;;;;;;;;;;;;;;;4974269;28;19961;-70
2023/07/21 12:54:23;;;;;;;;;;;;;;;;;;4975444;28;19984;-70
2023/07/21 12:56:49;;;;;;;;;;;;;;;;;;4975751;28;20324;-69
2023/07/21 12:59:14;;;;;;;;;;;;;;;;;;4975423;28;19969;-69
2023/07/21 13:01:42;;;;;;;;;;;;;;;;;;4975492;28;19964;-69
2023/07/21 13:04:08;;;;;;;;;;;;;;;;;;4975516;28;20008;-69
2023/07/21 13:06:33;;;;;;;;;;;;;;;;;;4975465;28;20129;-69
2023/07/21 13:08:59;;;;;;;;;;;;;;;;;;4975253;28;19965;-70
2023/07/21 13:11:25;;;;;;;;;;;;;;;;;;4975250;28;19957;-69
2023/07/21 13:13:51;;;;;;;;;;;;;;;;;;4975234;28;20048;-69
2023/07/21 13:16:17;;;;;;;;;;;;;;;;;;4975392;28;19989;-69
2023/07/21 13:18:43;;;;;;;;;;;;;;;;;;4975088;28;19957;-69
2023/07/21 13:21:09;;;;;;;;;;;;;;;;;;4975091;28;19965;-69
2023/07/21 13:23:35;;;;;;;;;;;;;;;;;;4975327;28;20040;-69
2023/07/21 13:26:01;;;;;;;;;;;;;;;;;;4974940;28;19977;-69
2023/07/21 13:28:27;;;;;;;;;;;;;;;;;;4975014;28;19958;-69
2023/07/21 13:30:53;;;;;;;;;;;;;;;;;;4975226;28;20305;-69
2023/07/21 13:33:19;;;;;;;;;;;;;;;;;;4974940;28;19957;-69
2023/07/21 13:35:45;;;;;;;;;;;;;;;;;;4975972;28;19962;-69
2023/07/21 13:38:11;;;;;;;;;;;;;;;;;;4974889;28;19996;-70
2023/07/21 13:40:37;;;;;;;;;;;;;;;;;;4975154;28;20007;-69
2023/07/21 13:43:04;;;;;;;;;;;;;;;;;;4974687;28;19984;-70
2023/07/21 13:45:30;;;;;;;;;;;;;;;;;;4974683;28;19997;-69
2023/07/21 13:47:56;;;;;;;;;;;;;;;;;;4974982;28;20031;-70
2023/07/21 13:50:22;;;;;;;;;;;;;;;;;;4974828;28;19957;-69
2023/07/21 13:52:48;;;;;;;;;;;;;;;;;;4974771;28;20443;-69
2023/07/21 13:55:13;;;;;;;;;;;;;;;;;;4974751;28;19964;-70
2023/07/21 13:57:39;;;;;;;;;;;;;;;;;;4974963;28;19957;-69
2023/07/21 14:00:06;;;;;;;;;;;;;;;;;;4974969;28;19957;-69
2023/07/21 14:02:32;;;;;;;;;;;;;;;;;;4974678;28;19957;-69
2023/07/21 14:04:58;;;;;;;;;;;;;;;;;;4974897;28;20048;-69
2023/07/21 14:07:24;;;;;;;;;;;;;;;;;;4974577;28;20347;-69
2023/07/21 14:09:50;;;;;;;;;;;;;;;;;;4976556;28;19958;-70
2023/07/21 14:12:16;;;;;;;;;;;;;;;;;;4978780;28;19957;-70
2023/07/21 14:14:42;;;;;;;;;;;;;;;;;;4978417;28;19964;-69
2023/07/21 14:17:08;;;;;;;;;;;;;;;;;;4978391;28;20323;-69
2023/07/21 14:19:34;;;;;;;;;;;;;;;;;;4978304;28;19961;-69
2023/07/21 14:22:00;;;;;;;;;;;;;;;;;;4978831;28;19957;-71
2023/07/21 14:24:26;;;;;;;;;;;;;;;;;;4978246;28;19958;-69
2023/07/21 14:26:53;;;;;;;;;;;;;;;;;;4978144;28;19984;-69
2023/07/21 14:29:19;;;;;;;;;;;;;;;;;;4978708;28;19957;-70
2023/07/21 14:31:44;;;;;;;;;;;;;;;;;;4978351;28;19983;-70
2023/07/21 14:34:10;;;;;;;;;;;;;;;;;;4978111;28;19964;-69
2023/07/21 14:36:37;;;;;;;;;;;;;;;;;;4978538;28;19961;-70
2023/07/21 14:39:04;;;;;;;;;;;;;;;;;;4977979;28;19958;-69
2023/07/21 14:41:31;;;;;;;;;;;;;;;;;;4977856;28;19964;-70
2023/07/21 14:43:57;;;;;;;;;;;;;;;;;;4977838;28;20419;-69
2023/07/21 14:46:23;;;;;;;;;;;;;;;;;;4977374;28;19999;-69
2023/07/21 14:48:49;;;;;;;;;;;;;;;;;;4978358;28;20034;-70
2023/07/21 14:51:15;;;;;;;;;;;;;;;;;;4977765;28;20378;-70
2023/07/21 14:53:41;;;;;;;;;;;;;;;;;;4977669;28;20048;-69
2023/07/21 14:56:07;;;;;;;;;;;;;;;;;;4977893;28;20008;-69
2023/07/21 14:58:33;;;;;;;;;;;;;;;;;;4977601;28;20420;-70
2023/07/21 15:00:59;;;;;;;;;;;;;;;;;;4977526;28;19957;-69
2023/07/21 15:03:25;;;;;;;;;;;;;;;;;;4977752;28;19961;-68
2023/07/21 15:05:51;;;;;;;;;;;;;;;;;;4977653;28;20415;-69
2023/07/21 15:08:17;;;;;;;;;;;;;;;;;;4978018;28;19961;-69
2023/07/21 15:10:43;;;;;;;;;;;;;;;;;;4977402;28;19957;-69
2023/07/21 15:13:08;;;;;;;;;;;;;;;;;;4977367;28;20047;-69
2023/07/21 15:15:35;;;;;;;;;;;;;;;;;;4977294;28;19961;-69
2023/07/21 15:18:02;;;;;;;;;;;;;;;;;;4977489;28;19958;-68
2023/07/21 15:20:28;;;;;;;;;;;;;;;;;;4976010;28;19957;-69
2023/07/21 15:22:54;;;;;;;;;;;;;;;;;;4976976;28;19957;-69
2023/07/21 15:25:21;;;;;;;;;;;;;;;;;;4977126;28;20018;-68
2023/07/21 15:27:47;;;;;;;;;;;;;;;;;;4977027;28;19984;-69
2023/07/21 15:30:13;;;;;;;;;;;;;;;;;;4977036;28;19964;-69
2023/07/21 15:32:40;;;;;;;;;;;;;;;;;;4977001;28;19957;-70
2023/07/21 15:35:06;;;;;;;;;;;;;;;;;;4976183;28;20343;-69
2023/07/21 15:37:32;;;;;;;;;;;;;;;;;;4977410;28;20074;-69
2023/07/21 15:39:59;;;;;;;;;;;;;;;;;;4976826;28;19984;-69
2023/07/21 15:42:26;;;;;;;;;;;;;;;;;;4976663;28;19983;-70
2023/07/21 15:44:52;;;;;;;;;;;;;;;;;;4976723;28;19993;-69
2023/07/21 15:47:18;;;;;;;;;;;;;;;;;;4976688;28;19984;-69
2023/07/21 15:49:44;;;;;;;;;;;;;;;;;;4976732;28;20498;-69
2023/07/21 15:52:10;;;;;;;;;;;;;;;;;;4976652;28;20052;-69
2023/07/21 15:54:36;;;;;;;;;;;;;;;;;;4976864;28;19996;-69
2023/07/21 15:57:02;;;;;;;;;;;;;;;;;;4976548;28;19957;-69
2023/07/21 15:59:28;;;;;;;;;;;;;;;;;;4976732;28;19957;-70
2023/07/21 16:01:54;;;;;;;;;;;;;;;;;;4976490;28;20427;-69
2023/07/21 16:04:20;;;;;;;;;;;;;;;;;;4976392;28;19965;-70
2023/07/21 16:06:46;;;;;;;;;;;;;;;;;;4976573;28;20112;-69
2023/07/21 16:09:12;;;;;;;;;;;;;;;;;;4976333;28;19958;-70
2023/07/21 16:11:38;;;;;;;;;;;;;;;;;;4976290;28;19964;-69
2023/07/21 16:14:04;;;;;;;;;;;;;;;;;;4976501;28;19957;-69
2023/07/21 16:16:30;;;;;;;;;;;;;;;;;;4976107;28;19957;-70
2023/07/21 16:18:56;;;;;;;;;;;;;;;;;;4976392;28;20315;-68
2023/07/21 16:21:22;;;;;;;;;;;;;;;;;;4976062;28;19957;-70
2023/07/21 16:23:48;;;;;;;;;;;;;;;;;;4976278;28;19964;-69
2023/07/21 16:26:14;;;;;;;;;;;;;;;;;;4976211;28;19984;-69
2023/07/21 16:28:40;;;;;;;;;;;;;;;;;;4975962;28;20044;-70
2023/07/21 16:31:06;;;;;;;;;;;;;;;;;;4976192;28;20370;-69
2023/07/21 16:33:32;;;;;;;;;;;;;;;;;;4975460;28;19958;-68
2023/07/21 16:35:57;;;;;;;;;;;;;;;;;;4976540;28;20056;-69
2023/07/21 16:38:23;;;;;;;;;;;;;;;;;;4975640;28;20434;-68